Time;durP1;ratioP1;P1;durP2;ratioP2;P2;SDS_P1;SDS_P2;PMS_P1;PMS_P2;Temp;Humidity;BMP_temperature;BMP_pressure;BME280_temperature;BME280_humidity;BME280_pressure;Samples;Min_cycle;Max_cycle;Signal;HPM_P1;HPM_P2
2023/06/01 00:01:40;;;;;;;6.63;5.50;;;;;;;14.38;76.20;102111.25;6095031;28;20252;-79
2023/06/01 00:05:01;;;;;;;6.50;5.77;;;;;;;14.45;75.57;102110.72;6111307;28;21974;-79
2023/06/01 00:08:22;;;;;;;8.10;5.33;;;;;;;14.35;75.54;102106.09;6112397;28;20231;-79
2023/06/01 00:11:43;;;;;;;5.77;5.23;;;;;;;14.44;75.36;102107.16;6092836;28;20236;-77
2023/06/01 00:15:07;;;;;;;9.53;5.93;;;;;;;14.41;75.24;102115.56;6098725;28;20235;-79
2023/06/01 00:18:28;;;;;;;8.43;6.90;;;;;;;14.47;75.38;102111.47;6102484;28;20227;-79
2023/06/01 00:21:48;;;;;;;6.93;5.77;;;;;;;14.41;75.55;102110.16;6102800;28;20232;-79
2023/06/01 00:25:10;;;;;;;8.30;5.13;;;;;;;14.20;75.39;102104.66;6097601;28;20229;-81
2023/06/01 00:28:31;;;;;;;7.77;5.60;;;;;;;14.39;75.49;102107.53;6105210;28;20240;-80
2023/06/01 00:31:54;;;;;;;6.33;5.13;;;;;;;14.61;74.81;102108.41;6099594;28;20244;-80
2023/06/01 00:35:15;;;;;;;8.10;5.20;;;;;;;14.37;75.03;102112.25;6115077;28;20235;-79
2023/06/01 00:38:36;;;;;;;5.13;4.10;;;;;;;14.33;75.45;102110.78;6095773;28;20361;-79
2023/06/01 00:41:57;;;;;;;8.73;4.60;;;;;;;14.42;75.29;102106.44;6089224;28;20235;-83
2023/06/01 00:45:18;;;;;;;9.90;6.57;;;;;;;14.59;75.05;102113.13;6104572;28;20601;-85
2023/06/01 00:48:41;;;;;;;8.30;5.23;;;;;;;14.52;75.27;102107.34;6096752;28;20235;-85
2023/06/01 00:52:02;;;;;;;9.70;5.87;;;;;;;14.26;75.09;102114.13;6104105;28;20232;-84
2023/06/01 00:55:23;;;;;;;6.10;5.50;;;;;;;14.18;75.74;102109.34;6116837;28;20235;-85
2023/06/01 00:58:44;;;;;;;9.87;4.83;;;;;;;14.32;75.31;102098.22;6113500;28;20263;-84
2023/06/01 01:02:08;;;;;;;10.17;4.83;;;;;;;14.25;75.64;102099.69;6101516;28;20244;-84
2023/06/01 01:05:31;;;;;;;6.20;4.13;;;;;;;14.26;75.62;102093.28;6108945;28;20240;-84
2023/06/01 01:09:07;;;;;;;5.97;4.27;;;;;;;13.98;75.64;102088.44;6094767;28;20231;-84
2023/06/01 01:12:32;;;;;;;4.97;3.30;;;;;;;14.01;75.64;102084.63;6102264;28;20597;-84
2023/06/01 01:16:01;;;;;;;7.83;4.97;;;;;;;14.14;75.55;102093.47;6096876;28;20551;-83
2023/06/01 01:19:36;;;;;;;5.90;3.90;;;;;;;14.07;75.17;102092.25;6104286;28;20232;-84
2023/06/01 01:23:24;;;;;;;4.60;3.50;;;;;;;14.06;75.27;102087.81;6098225;28;20260;-85
2023/06/01 01:26:57;;;;;;;3.80;3.00;;;;;;;14.00;75.59;102086.47;6091089;28;20246;-83
2023/06/01 01:30:23;;;;;;;7.33;4.20;;;;;;;14.25;75.36;102093.38;6094658;28;20243;-84
2023/06/01 01:33:46;;;;;;;4.90;3.70;;;;;;;14.18;75.07;102089.50;6112333;28;20232;-84
2023/06/01 01:37:08;;;;;;;11.37;3.70;;;;;;;14.07;74.71;102095.81;6098417;28;20223;-83
2023/06/01 01:40:29;;;;;;;7.57;3.87;;;;;;;13.68;74.37;102091.00;6119537;28;20578;-85
2023/06/01 01:43:50;;;;;;;10.23;4.20;;;;;;;13.89;74.84;102100.09;6104851;28;20617;-83
2023/06/01 01:47:25;;;;;;;5.63;3.57;;;;;;;13.79;75.30;102084.72;6099476;28;23811;-84
2023/06/01 01:50:56;;;;;;;4.50;4.00;;;;;;;13.76;75.06;102080.41;6117748;28;20283;-84
2023/06/01 01:54:19;;;;;;;6.57;4.00;;;;;;;13.78;74.60;102085.69;6107763;28;20223;-84
2023/06/01 01:57:41;;;;;;;8.33;4.27;;;;;;;13.56;75.24;102073.91;6089443;29;20237;-84
2023/06/01 02:01:04;;;;;;;5.27;4.30;;;;;;;13.82;74.78;102077.16;6108874;28;20231;-83
2023/06/01 02:04:27;;;;;;;7.27;4.30;;;;;;;13.98;74.17;102083.03;6090854;28;20235;-85
2023/06/01 02:07:48;;;;;;;4.30;3.90;;;;;;;13.79;74.03;102071.16;6106694;28;20562;-84
2023/06/01 02:11:09;;;;;;;5.90;4.70;;;;;;;13.48;74.77;102078.22;6100649;28;20244;-86
2023/06/01 02:14:30;;;;;;;6.30;3.80;;;;;;;13.54;75.03;102073.16;6115291;28;20497;-87
2023/06/01 02:17:53;;;;;;;5.67;3.70;;;;;;;13.61;75.06;102068.09;6095376;28;20318;-85
2023/06/01 02:21:16;;;;;;;5.97;3.70;;;;;;;13.65;74.95;102064.16;6105446;28;20269;-84
2023/06/01 02:24:37;;;;;;;5.70;4.93;;;;;;;13.88;74.56;102057.69;6121661;28;20713;-85
2023/06/01 02:27:58;;;;;;;6.47;3.63;;;;;;;13.98;74.39;102053.19;6114694;28;20715;-86
2023/06/01 02:31:20;;;;;;;7.43;3.73;;;;;;;13.98;74.53;102061.34;6104427;28;20236;-86
2023/06/01 02:34:41;;;;;;;7.57;5.13;;;;;;;13.80;74.67;102059.31;6103737;28;20236;-84
2023/06/01 02:38:03;;;;;;;8.23;4.33;;;;;;;13.93;74.39;102057.31;6108831;28;20266;-86
2023/06/01 02:41:25;;;;;;;7.03;3.30;;;;;;;13.93;74.39;102062.72;6096704;28;20232;-86
2023/06/01 02:44:46;;;;;;;8.10;5.03;;;;;;;13.91;74.40;102049.31;6103086;28;20330;-86
2023/06/01 02:48:07;;;;;;;11.03;4.70;;;;;;;14.00;74.48;102051.22;6114829;28;20313;-86
2023/06/01 02:51:28;;;;;;;8.00;4.93;;;;;;;13.78;74.76;102048.59;6095033;28;20240;-86
2023/06/01 02:55:01;;;;;;;8.77;4.47;;;;;;;13.83;75.06;102050.94;6105717;28;20232;-87
2023/06/01 02:58:43;;;;;;;5.93;3.80;;;;;;;13.83;74.93;102049.06;6109186;28;20236;-85
2023/06/01 03:02:13;;;;;;;5.87;4.30;;;;;;;13.94;74.67;102046.31;6101846;28;20535;-83
2023/06/01 03:05:35;;;;;;;5.50;3.07;;;;;;;14.02;74.24;102045.66;6103427;28;20507;-84
2023/06/01 03:09:25;;;;;;;7.30;3.40;;;;;;;13.74;74.30;102040.84;6094378;28;20244;-87
2023/06/01 03:12:51;;;;;;;4.50;3.37;;;;;;;13.66;74.39;102040.63;6088874;29;20243;-85
2023/06/01 03:16:16;;;;;;;9.50;4.20;;;;;;;13.62;74.29;102042.75;6115482;28;20232;-84
2023/06/01 03:19:46;;;;;;;5.70;3.77;;;;;;;13.63;74.45;102039.91;6102808;28;20247;-84
2023/06/01 03:23:15;;;;;;;6.57;3.17;;;;;;;13.72;74.41;102032.84;6103266;28;20624;-84
2023/06/01 03:26:37;;;;;;;7.27;4.10;;;;;;;13.67;74.24;102032.38;6090904;28;20386;-85
2023/06/01 03:30:01;;;;;;;4.80;3.83;;;;;;;13.54;74.57;102024.41;6090848;28;20275;-84
2023/06/01 03:33:25;;;;;;;8.37;3.73;;;;;;;13.76;74.48;102034.31;6102194;28;20298;-82
2023/06/01 03:36:47;;;;;;;5.30;3.87;;;;;;;13.85;74.13;102035.41;6098407;28;20231;-85
2023/06/01 03:40:11;;;;;;;12.00;4.67;;;;;;;13.80;74.06;102027.66;6113229;28;20532;-84
2023/06/01 03:43:32;;;;;;;4.43;2.73;;;;;;;13.67;74.21;102023.38;6097974;28;20247;-84
2023/06/01 03:46:55;;;;;;;6.27;3.53;;;;;;;13.94;74.19;102023.75;6096218;28;20244;-85
2023/06/01 03:50:16;;;;;;;6.50;3.53;;;;;;;13.79;73.71;102023.19;6094942;28;20232;-85
2023/06/01 03:53:38;;;;;;;6.07;4.50;;;;;;;13.77;74.14;102027.06;6110310;28;20232;-83
2023/06/01 03:57:01;;;;;;;18.43;5.03;;;;;;;13.55;74.01;102017.13;6098341;28;20239;-82
2023/06/01 04:00:23;;;;;;;12.70;4.57;;;;;;;13.39;74.21;102024.81;6103896;28;20232;-84
2023/06/01 04:03:50;;;;;;;14.33;5.37;;;;;;;13.48;74.42;102016.78;6097932;28;20314;-83
2023/06/01 04:07:14;;;;;;;9.40;4.83;;;;;;;13.71;73.84;102012.16;6095599;28;20242;-84
2023/06/01 04:10:35;;;;;;;10.50;4.90;;;;;;;13.41;73.96;102018.25;6105153;28;20243;-83
2023/06/01 04:13:56;;;;;;;5.97;3.90;;;;;;;13.38;74.67;102014.94;6077523;28;20232;-84
2023/06/01 04:17:18;;;;;;;8.00;3.07;;;;;;;13.62;74.40;102019.19;6099338;28;20326;-84
2023/06/01 04:20:40;;;;;;;5.53;4.00;;;;;;;13.64;74.44;102011.78;6103615;28;20239;-85
2023/06/01 04:24:01;;;;;;;6.17;3.30;;;;;;;13.93;74.01;102008.50;6101170;28;21067;-85
2023/06/01 04:27:24;;;;;;;5.10;2.97;;;;;;;14.00;74.03;102015.97;6078260;28;20475;-86
2023/06/01 04:30:47;;;;;;;5.10;3.70;;;;;;;13.51;74.14;102005.69;6097680;28;20248;-86
2023/06/01 04:34:09;;;;;;;7.33;4.30;;;;;;;13.84;73.70;102015.56;6091156;28;20232;-84
2023/06/01 04:37:33;;;;;;;4.67;4.17;;;;;;;13.91;74.00;102016.78;6098820;28;20336;-83
2023/06/01 04:40:55;;;;;;;7.40;3.20;;;;;;;13.73;73.33;102015.59;6102131;28;20327;-85
2023/06/01 04:44:21;;;;;;;5.47;3.43;;;;;;;13.88;73.59;102011.59;6082573;28;20239;-84
2023/06/01 04:47:44;;;;;;;8.10;4.37;;;;;;;13.67;73.61;102004.41;6078784;28;20228;-84
2023/06/01 04:51:10;;;;;;;7.50;3.83;;;;;;;13.73;73.64;102001.16;6114650;28;20255;-83
2023/06/01 04:54:35;;;;;;;4.53;4.07;;;;;;;13.98;73.38;101995.41;6094558;28;20228;-82
2023/06/01 04:57:56;;;;;;;7.63;3.33;;;;;;;13.94;73.20;102008.38;6100741;28;20610;-85
2023/06/01 05:01:17;;;;;;;8.10;4.10;;;;;;;14.01;72.73;101993.31;6096995;28;20251;-82
2023/06/01 05:04:39;;;;;;;4.23;3.73;;;;;;;14.05;72.61;101992.06;6107308;28;20224;-81
2023/06/01 05:08:00;;;;;;;4.60;3.57;;;;;;;14.16;72.42;101989.25;6104478;28;20219;-84
2023/06/01 05:11:27;;;;;;;10.90;3.10;;;;;;;14.14;71.63;101995.81;6095478;28;20240;-84
2023/06/01 05:14:49;;;;;;;6.83;3.87;;;;;;;14.23;72.13;101992.31;6119076;28;20224;-84
2023/06/01 05:18:13;;;;;;;8.80;4.47;;;;;;;14.01;72.04;101979.75;6105545;28;20584;-84
2023/06/01 05:21:40;;;;;;;7.90;6.00;;;;;;;14.16;72.64;101986.53;6099645;28;20251;-83
2023/06/01 05:25:01;;;;;;;6.93;4.73;;;;;;;14.29;72.27;101986.38;6116871;28;20674;-79
2023/06/01 05:28:24;;;;;;;8.77;4.17;;;;;;;14.14;72.46;101977.69;6102459;28;20239;-76
2023/06/01 05:31:46;;;;;;;5.67;3.27;;;;;;;14.32;72.19;101981.56;6105334;28;21006;-73
2023/06/01 05:35:08;;;;;;;10.17;4.10;;;;;;;14.28;72.32;101984.63;6114392;28;20235;-73
2023/06/01 05:38:30;;;;;;;4.77;3.67;;;;;;;13.99;72.64;101973.59;6098141;28;20239;-75
2023/06/01 05:41:51;;;;;;;9.80;4.43;;;;;;;14.17;72.95;101972.00;6111130;28;20231;-74
2023/06/01 05:45:13;;;;;;;6.10;3.27;;;;;;;14.30;72.86;101961.84;6103721;28;20263;-73
2023/06/01 05:48:34;;;;;;;4.47;2.83;;;;;;;14.09;72.48;101968.22;6103732;28;20227;-79
2023/06/01 05:51:55;;;;;;;7.00;4.47;;;;;;;14.01;72.63;101966.19;6095322;28;20255;-79
2023/06/01 05:55:16;;;;;;;3.93;3.10;;;;;;;14.04;72.58;101978.63;6100966;28;21199;-72
2023/06/01 05:58:37;;;;;;;11.13;4.27;;;;;;;13.95;72.54;101969.44;6109349;28;20231;-74
2023/06/01 06:02:00;;;;;;;9.13;3.43;;;;;;;14.05;72.22;101980.34;6094500;28;20605;-75
2023/06/01 06:05:21;;;;;;;9.13;3.10;;;;;;;14.05;71.85;101985.75;6105921;28;20801;-75
2023/06/01 06:08:42;;;;;;;6.40;3.17;;;;;;;14.35;71.40;101977.75;6107441;28;20613;-75
2023/06/01 06:12:03;;;;;;;7.00;2.57;;;;;;;14.50;70.82;101989.09;6088850;28;20262;-68
2023/06/01 06:15:24;;;;;;;7.73;3.27;;;;;;;15.05;70.08;101977.75;6102702;28;20236;-69
2023/06/01 06:18:46;;;;;;;7.90;3.53;;;;;;;15.18;69.44;101979.25;6100966;28;20625;-67
2023/06/01 06:22:07;;;;;;;4.37;3.23;;;;;;;14.99;69.08;101972.88;6099314;28;20315;-69
2023/06/01 06:25:28;;;;;;;3.03;2.07;;;;;;;15.03;69.18;101982.47;6089543;28;20243;-69
2023/06/01 06:28:49;;;;;;;5.30;2.97;;;;;;;15.52;68.65;101970.78;6091582;28;21649;-66
2023/06/01 06:32:10;;;;;;;5.33;3.00;;;;;;;15.13;68.95;101975.22;6099395;28;20235;-68
2023/06/01 06:35:32;;;;;;;3.87;2.73;;;;;;;15.33;68.06;101971.56;6106661;28;20315;-68
2023/06/01 06:38:53;;;;;;;11.40;3.10;;;;;;;15.07;68.94;101973.91;6117356;28;20228;-68
2023/06/01 06:42:14;;;;;;;6.37;3.47;;;;;;;14.89;69.38;101972.88;6093908;28;20239;-68
2023/06/01 06:45:35;;;;;;;9.77;3.77;;;;;;;14.82;69.53;101974.41;6110873;28;20232;-68
2023/06/01 06:48:56;;;;;;;5.43;3.20;;;;;;;15.06;69.55;101974.91;6103347;28;20236;-69
2023/06/01 06:52:18;;;;;;;4.80;3.57;;;;;;;15.05;69.35;101972.34;6105908;28;20644;-69
2023/06/01 06:55:39;;;;;;;4.03;3.03;;;;;;;14.99;69.78;101976.47;6104717;28;20335;-67
2023/06/01 06:59:00;;;;;;;8.30;3.00;;;;;;;14.87;70.64;101974.84;6107087;28;20594;-68
2023/06/01 07:02:21;;;;;;;5.90;3.27;;;;;;;14.53;70.86;101978.84;6103070;28;20239;-67
2023/06/01 07:05:44;;;;;;;8.33;2.90;;;;;;;14.53;71.17;101981.53;6116040;28;20240;-68
2023/06/01 07:09:07;;;;;;;5.40;3.13;;;;;;;14.75;70.44;101977.81;6109047;28;20228;-68
2023/06/01 07:12:28;;;;;;;4.63;2.57;;;;;;;15.29;70.03;101970.09;6099099;28;20241;-67
2023/06/01 07:15:48;;;;;;;5.47;3.27;;;;;;;15.29;69.25;101967.38;6110600;28;20538;-67
2023/06/01 07:19:09;;;;;;;2.63;2.43;;;;;;;15.41;68.52;101985.31;6119325;28;20546;-67
2023/06/01 07:22:30;;;;;;;4.00;3.10;;;;;;;15.11;68.49;101975.38;6107044;28;20239;-66
2023/06/01 07:25:52;;;;;;;3.33;2.33;;;;;;;15.40;68.49;101975.41;6116840;28;20243;-67
2023/06/01 07:29:14;;;;;;;9.00;3.10;;;;;;;15.37;68.27;101977.56;6117670;28;20666;-69
2023/06/01 07:32:36;;;;;;;7.07;3.13;;;;;;;15.20;68.89;101981.81;6106761;28;20227;-68
2023/06/01 07:35:58;;;;;;;4.47;3.13;;;;;;;15.61;68.20;101962.63;6113772;28;20231;-69
2023/06/01 07:39:19;;;;;;;5.43;2.93;;;;;;;15.80;67.77;101972.63;6105096;28;20268;-67
2023/06/01 07:42:41;;;;;;;5.00;3.47;;;;;;;15.73;67.87;101964.19;6102926;28;20247;-67
2023/06/01 07:46:03;;;;;;;8.20;2.37;;;;;;;15.28;68.46;101967.53;6110487;28;20223;-67
2023/06/01 07:49:23;;;;;;;4.10;2.97;;;;;;;15.43;68.72;101961.59;6090261;28;20235;-68
2023/06/01 07:52:44;;;;;;;4.83;3.17;;;;;;;15.53;68.71;101976.06;6099377;28;20228;-69
2023/06/01 07:56:06;;;;;;;9.20;2.40;;;;;;;15.84;68.69;101964.06;6113309;28;20804;-68
2023/06/01 07:59:29;;;;;;;4.83;3.47;;;;;;;15.43;68.73;101972.47;6104411;28;20236;-68
2023/06/01 08:02:50;;;;;;;10.67;3.20;;;;;;;15.53;69.03;101967.03;6107029;28;20231;-68
2023/06/01 08:06:11;;;;;;;6.33;2.53;;;;;;;15.71;68.03;101977.06;6110954;28;20347;-69
2023/06/01 08:09:32;;;;;;;9.00;2.83;;;;;;;15.85;67.61;101978.50;6100979;28;20234;-69
2023/06/01 08:12:55;;;;;;;7.27;3.17;;;;;;;15.60;67.65;101973.63;6104710;28;20242;-69
2023/06/01 08:16:18;;;;;;;5.33;2.87;;;;;;;15.47;67.59;101979.34;6101797;28;20240;-69
2023/06/01 08:19:40;;;;;;;6.73;3.33;;;;;;;15.71;68.18;101965.31;6106739;28;20232;-68
2023/06/01 08:23:01;;;;;;;5.30;3.30;;;;;;;15.96;67.69;101970.19;6108330;28;20242;-68
2023/06/01 08:26:22;;;;;;;4.57;3.00;;;;;;;15.91;66.86;101967.06;6098082;28;20330;-68
2023/06/01 08:29:44;;;;;;;3.00;2.40;;;;;;;16.29;66.60;101960.72;6124002;28;20249;-69
2023/06/01 08:33:06;;;;;;;8.03;2.90;;;;;;;15.90;66.70;101963.47;6116781;28;20524;-68
2023/06/01 08:36:27;;;;;;;5.43;2.90;;;;;;;16.22;66.15;101978.63;6101307;28;20227;-67
2023/06/01 08:39:47;;;;;;;2.27;2.07;;;;;;;16.21;66.42;101968.75;6117431;28;20235;-68
2023/06/01 08:43:15;;;;;;;4.93;3.33;;;;;;;16.06;66.89;101965.63;6089566;28;20883;-83
2023/06/01 08:46:36;;;;;;;4.17;2.50;;;;;;;15.85;66.92;101956.75;6105333;28;20224;-88
2023/06/01 08:50:10;;;;;;;5.50;2.77;;;;;;;16.08;67.38;101963.63;6094445;28;20231;-86
2023/06/01 08:53:33;;;;;;;2.63;2.40;;;;;;;16.29;67.06;101955.28;6107718;28;20235;-81
2023/06/01 08:57:02;;;;;;;6.37;2.60;;;;;;;16.09;67.01;101965.31;6111992;28;20227;-87
2023/06/01 09:00:27;;;;;;;5.07;2.77;;;;;;;15.65;67.84;101955.88;6109334;28;21939;-87
2023/06/01 09:03:50;;;;;;;12.47;4.10;;;;;;;15.69;68.68;101956.44;6094996;28;20302;-84
2023/06/01 09:07:12;;;;;;;4.37;1.93;;;;;;;15.15;69.70;101956.91;6094756;28;20231;-83
2023/06/01 09:10:34;;;;;;;8.07;2.57;;;;;;;15.60;69.58;101963.63;6110499;28;20227;-86
2023/06/01 09:13:55;;;;;;;4.03;3.03;;;;;;;15.90;68.88;101965.31;6100518;28;20228;-83
2023/06/01 09:17:22;;;;;;;3.83;2.20;;;;;;;15.83;68.13;101956.88;6094693;28;20239;-83
2023/06/01 09:20:44;;;;;;;3.37;1.93;;;;;;;15.71;67.86;101962.59;6116691;28;20586;-82
2023/06/01 09:24:20;;;;;;;3.67;1.97;;;;;;;15.45;68.84;101972.31;6103997;28;20291;-85
2023/06/01 09:27:46;;;;;;;4.13;2.30;;;;;;;15.19;68.30;101961.06;6099309;28;20269;-82
2023/06/01 09:31:07;;;;;;;4.07;1.90;;;;;;;15.63;68.23;101959.75;6101203;28;20232;-82
2023/06/01 09:34:28;;;;;;;6.47;2.70;;;;;;;15.97;67.03;101967.34;6109271;28;20235;-82
2023/06/01 09:37:56;;;;;;;3.67;2.17;;;;;;;15.69;66.05;101957.31;6101563;28;20610;-84
2023/06/01 09:41:21;;;;;;;12.53;3.03;;;;;;;16.52;65.17;101957.50;6111147;28;20227;-81
2023/06/01 09:44:43;;;;;;;4.27;2.50;;;;;;;16.64;63.57;101956.34;6113840;28;20227;-78
2023/06/01 09:48:18;;;;;;;5.63;2.60;;;;;;;16.76;63.33;101959.72;6109038;28;20235;-78
2023/06/01 09:51:39;;;;;;;10.15;2.47;;;;;;;16.74;63.08;101956.31;6104237;28;20592;-80
2023/06/01 09:55:06;;;;;;;5.20;3.72;;;;;;;16.74;63.13;101948.13;6121241;28;20271;-78
2023/06/01 09:58:28;;;;;;;6.13;3.23;;;;;;;16.30;64.14;101951.53;6118906;28;20238;-79
2023/06/01 10:01:54;;;;;;;6.00;2.80;;;;;;;16.50;63.12;101943.19;6102703;28;20852;-81
2023/06/01 10:05:16;;;;;;;4.37;2.43;;;;;;;16.51;63.15;101938.63;6114302;28;20240;-79
2023/06/01 10:08:37;;;;;;;3.83;2.08;;;;;;;16.96;63.16;101942.28;6085010;28;20227;-76
2023/06/01 10:11:59;;;;;;;5.80;2.40;;;;;;;16.71;62.72;101945.69;6096707;28;20235;-73
2023/06/01 10:15:21;;;;;;;5.47;2.83;;;;;;;16.94;62.41;101933.41;6107071;28;20240;-77
2023/06/01 10:18:43;;;;;;;6.83;2.90;;;;;;;16.88;62.31;101931.28;6097794;28;20255;-73
2023/06/01 10:22:04;;;;;;;3.83;2.53;;;;;;;17.49;62.45;101932.38;6091339;28;20240;-73
2023/06/01 10:25:26;;;;;;;5.70;2.47;;;;;;;16.58;63.16;101934.31;6109419;28;20235;-73
2023/06/01 10:28:49;;;;;;;2.30;2.08;;;;;;;17.29;62.95;101919.84;6097836;28;20536;-72
2023/06/01 10:32:45;;;;;;;2.92;2.45;;;;;;;16.57;63.74;101924.41;6102827;28;20235;-77
2023/06/01 10:36:06;;;;;;;17.73;3.40;;;;;;;16.64;64.63;101934.56;6104225;28;20254;-73
2023/06/01 10:39:28;;;;;;;4.73;2.67;;;;;;;16.64;64.43;101940.00;6096195;28;20598;-76
2023/06/01 10:42:49;;;;;;;4.90;3.07;;;;;;;17.15;63.39;101928.53;6112864;28;20310;-76
2023/06/01 10:46:34;;;;;;;4.53;2.83;;;;;;;17.23;62.86;101920.47;6103496;28;20266;-78
2023/06/01 10:50:10;;;;;;;4.03;2.23;;;;;;;17.03;62.76;101929.78;6103921;28;20783;-74
2023/06/01 10:53:32;;;;;;;2.93;2.00;;;;;;;17.25;61.74;101933.97;6098873;28;20232;-73
2023/06/01 10:57:23;;;;;;;4.90;2.67;;;;;;;18.08;59.45;101934.44;6110674;28;20917;-74
2023/06/01 11:00:45;;;;;;;7.57;2.22;;;;;;;18.50;58.49;101929.13;6105431;28;21786;-74
2023/06/01 11:04:07;;;;;;;2.58;1.58;;;;;;;18.66;57.12;101936.56;6113181;28;20231;-73
2023/06/01 11:07:47;;;;;;;2.65;2.25;;;;;;;17.90;57.91;101930.03;6104399;28;20235;-73
2023/06/01 11:11:08;;;;;;;4.45;2.08;;;;;;;17.82;58.78;101924.47;6105161;28;20629;-71
2023/06/01 11:14:33;;;;;;;5.88;2.20;;;;;;;17.77;59.68;101935.88;6093574;28;20244;-74
2023/06/01 11:17:54;;;;;;;3.47;2.05;;;;;;;17.69;60.18;101927.59;6102996;28;20243;-76
2023/06/01 11:21:17;;;;;;;2.55;1.98;;;;;;;17.40;60.19;101913.31;6103795;28;20803;-69
2023/06/01 11:24:40;;;;;;;4.50;2.47;;;;;;;17.78;59.82;101904.84;6111232;28;20237;-70
2023/06/01 11:28:01;;;;;;;4.03;2.00;;;;;;;17.51;59.80;101915.84;6112152;28;20235;-81
2023/06/01 11:31:23;;;;;;;4.07;2.35;;;;;;;18.05;59.23;101934.75;6098448;28;20247;-79
2023/06/01 11:34:45;;;;;;;5.43;2.53;;;;;;;17.75;59.63;101918.81;6111083;28;20232;-76
2023/06/01 11:38:06;;;;;;;4.00;1.97;;;;;;;17.58;59.98;101927.88;6104082;28;20235;-76
2023/06/01 11:41:28;;;;;;;4.28;2.63;;;;;;;17.41;60.66;101923.22;6101678;28;20227;-72
2023/06/01 11:44:58;;;;;;;5.63;2.75;;;;;;;17.56;61.22;101911.63;6112926;28;20236;-74
2023/06/01 11:48:19;;;;;;;10.10;3.88;;;;;;;17.91;60.09;101915.34;6106611;28;20246;-75
2023/06/01 11:51:40;;;;;;;4.30;2.08;;;;;;;18.07;58.93;101913.63;6096997;28;20252;-75
2023/06/01 11:55:04;;;;;;;3.50;2.45;;;;;;;18.53;58.15;101906.94;6104576;28;20271;-76
2023/06/01 11:58:27;;;;;;;3.40;1.48;;;;;;;18.58;57.67;101907.31;6087289;28;20240;-75
2023/06/01 12:01:51;;;;;;;2.72;2.05;;;;;;;18.00;58.71;101917.16;6083609;28;20244;-72
2023/06/01 12:05:14;;;;;;;6.18;2.50;;;;;;;18.54;58.10;101914.13;6111834;28;20554;-74
2023/06/01 12:08:35;;;;;;;2.72;1.92;;;;;;;17.79;58.98;101920.22;6099846;28;22472;-73
2023/06/01 12:11:56;;;;;;;6.95;2.17;;;;;;;17.62;60.75;101910.16;6093483;28;20238;-73
2023/06/01 12:15:19;;;;;;;3.65;2.55;;;;;;;17.43;60.46;101908.44;6100406;28;20232;-76
2023/06/01 12:18:40;;;;;;;2.78;1.23;;;;;;;18.09;58.89;101902.53;6101854;28;20235;-88
2023/06/01 12:22:03;;;;;;;9.95;2.08;;;;;;;17.87;58.38;101887.53;6094157;28;20224;-80
2023/06/01 12:25:24;;;;;;;6.38;2.05;;;;;;;17.67;58.33;101890.63;6095671;28;20314;-86
2023/06/01 12:28:50;;;;;;;4.65;1.95;;;;;;;18.15;57.63;101883.63;6101760;28;20235;-79
2023/06/01 12:32:16;;;;;;;2.50;1.60;;;;;;;17.87;58.40;101886.69;6095211;28;20231;-86
2023/06/01 12:35:49;;;;;;;5.32;2.33;;;;;;;18.55;57.62;101888.53;6107478;28;20243;-80
2023/06/01 12:39:10;;;;;;;6.95;2.22;;;;;;;18.77;56.78;101890.69;6111326;28;20248;-78
2023/06/01 12:42:36;;;;;;;6.90;2.30;;;;;;;19.42;54.47;101879.97;6099123;28;20562;-82
2023/06/01 12:45:57;;;;;;;6.25;1.90;;;;;;;19.00;55.23;101883.56;6102177;28;20319;-76
2023/06/01 12:49:20;;;;;;;11.95;2.78;;;;;;;18.44;57.44;101888.78;6100411;28;20276;-78
2023/06/01 12:52:42;;;;;;;8.07;3.13;;;;;;;18.07;57.96;101891.78;6101814;28;20510;-73
2023/06/01 12:56:04;;;;;;;9.07;2.30;;;;;;;18.15;58.99;101902.75;6110144;28;20240;-79
2023/06/01 12:59:24;;;;;;;8.82;2.00;;;;;;;18.48;57.42;101890.22;6090332;28;20251;-73
2023/06/01 13:02:47;;;;;;;4.47;1.42;;;;;;;18.53;56.77;101895.16;6094404;28;20706;-74
2023/06/01 13:06:10;;;;;;;4.78;2.25;;;;;;;17.70;58.21;101876.66;6108956;28;20236;-76
2023/06/01 13:09:31;;;;;;;4.60;1.90;;;;;;;18.49;57.43;101901.97;6112566;28;20232;-78
2023/06/01 13:12:51;;;;;;;7.13;2.65;;;;;;;19.57;55.07;101902.88;6116323;28;20665;-76
2023/06/01 13:16:12;;;;;;;4.55;1.77;;;;;;;18.72;55.84;101889.44;6102892;28;20236;-79
2023/06/01 13:19:33;;;;;;;5.90;1.90;;;;;;;18.58;55.53;101887.34;6110073;28;20232;-81
2023/06/01 13:22:56;;;;;;;4.43;1.92;;;;;;;18.16;57.27;101879.91;6105558;28;20220;-81
2023/06/01 13:26:17;;;;;;;7.45;1.80;;;;;;;17.75;57.72;101885.22;6117808;28;20236;-79
2023/06/01 13:29:38;;;;;;;5.22;2.03;;;;;;;19.78;55.01;101873.13;6123015;28;20480;-78
2023/06/01 13:32:59;;;;;;;9.48;3.55;;;;;;;19.32;55.21;101885.53;6097370;28;20310;-76
2023/06/01 13:36:20;;;;;;;7.18;3.45;;;;;;;20.48;54.16;101871.50;6106520;28;20649;-76
2023/06/01 13:39:42;;;;;;;3.63;1.83;;;;;;;22.38;48.99;101869.69;6109301;28;20606;-79
2023/06/01 13:43:03;;;;;;;7.90;3.00;;;;;;;21.01;50.57;101870.75;6112450;28;20299;-79
2023/06/01 13:46:24;;;;;;;4.15;1.73;;;;;;;21.09;51.20;101860.63;6095653;28;20247;-77
2023/06/01 13:49:45;;;;;;;8.95;3.03;;;;;;;21.20;50.42;101873.94;6127957;28;20243;-77
2023/06/01 13:53:06;;;;;;;4.93;2.95;;;;;;;20.91;50.10;101870.97;6114755;28;20239;-75
2023/06/01 13:56:28;;;;;;;6.28;2.28;;;;;;;18.89;53.50;101858.44;6105030;28;20247;-77
2023/06/01 13:59:49;;;;;;;10.05;3.10;;;;;;;20.19;51.89;101858.38;6126868;28;20247;-77
2023/06/01 14:03:10;;;;;;;5.05;1.50;;;;;;;19.98;53.00;101855.34;6116356;28;20231;-77
2023/06/01 14:06:32;;;;;;;5.93;2.22;;;;;;;19.99;52.80;101850.69;6104187;28;20235;-78
2023/06/01 14:09:53;;;;;;;6.38;2.53;;;;;;;19.92;53.22;101861.50;6124900;28;20232;-76
2023/06/01 14:13:15;;;;;;;7.78;2.58;;;;;;;20.39;51.96;101858.84;6113642;28;20239;-77
2023/06/01 14:16:36;;;;;;;6.35;2.05;;;;;;;20.50;51.27;101850.25;6103766;28;20228;-77
2023/06/01 14:19:57;;;;;;;7.85;2.25;;;;;;;19.46;53.17;101857.53;6123053;28;20236;-79
2023/06/01 14:23:21;;;;;;;4.38;1.90;;;;;;;19.03;53.60;101853.19;6080175;28;20588;-76
2023/06/01 14:26:42;;;;;;;6.80;2.75;;;;;;;19.07;54.34;101845.50;6104772;28;20738;-75
2023/06/01 14:30:09;;;;;;;8.90;2.55;;;;;;;19.50;53.47;101852.63;6103994;28;20319;-75
2023/06/01 14:33:30;;;;;;;7.28;1.90;;;;;;;19.52;52.86;101839.63;6102127;28;20354;-77
2023/06/01 14:36:51;;;;;;;8.32;2.83;;;;;;;19.85;52.63;101838.56;6085931;28;20562;-75
2023/06/01 14:40:12;;;;;;;4.45;1.80;;;;;;;20.11;52.37;101843.84;6095801;28;20236;-77
2023/06/01 14:43:33;;;;;;;6.68;2.45;;;;;;;19.96;51.84;101840.97;6096682;28;20235;-80
2023/06/01 14:46:57;;;;;;;7.63;2.05;;;;;;;19.02;53.56;101839.69;6101264;28;20227;-76
2023/06/01 14:50:19;;;;;;;3.35;1.80;;;;;;;19.43;53.90;101844.22;6093563;28;20332;-78
2023/06/01 14:53:40;;;;;;;22.73;3.08;;;;;;;19.90;53.11;101849.88;6105004;28;20259;-80
2023/06/01 14:57:01;;;;;;;6.82;2.80;;;;;;;18.69;54.63;101852.38;6080817;28;20231;-82
2023/06/01 15:00:23;;;;;;;5.28;2.25;;;;;;;18.89;54.55;101844.78;6099225;28;20314;-89
2023/06/01 15:03:48;;;;;;;6.38;2.17;;;;;;;19.03;54.42;101839.53;6076669;28;22616;-85
2023/06/01 15:07:09;;;;;;;8.18;3.17;;;;;;;19.48;53.80;101830.91;6100929;28;20789;-83
2023/06/01 15:10:30;;;;;;;4.07;2.67;;;;;;;19.18;53.30;101842.44;6114392;28;20240;-87
2023/06/01 15:13:51;;;;;;;11.38;3.05;;;;;;;19.07;54.41;101843.63;6093887;28;20322;-85
2023/06/01 15:17:12;;;;;;;7.10;2.42;;;;;;;18.51;55.32;101843.44;6104517;28;20672;-84
2023/06/01 15:20:34;;;;;;;8.65;4.32;;;;;;;19.14;54.97;101847.41;6112606;28;20677;-86
2023/06/01 15:23:55;;;;;;;8.52;2.45;;;;;;;19.03;54.49;101841.38;6103378;28;20244;-83
2023/06/01 15:27:16;;;;;;;9.52;3.47;;;;;;;18.93;54.71;101837.94;6106561;28;20228;-83
2023/06/01 15:30:37;;;;;;;6.25;2.63;;;;;;;18.38;55.87;101848.44;6114261;28;20464;-84
2023/06/01 15:33:58;;;;;;;7.85;2.83;;;;;;;18.54;55.82;101836.78;6107065;28;20258;-86
2023/06/01 15:37:20;;;;;;;6.40;2.95;;;;;;;18.49;55.35;101833.69;6105076;28;20863;-87
2023/06/01 15:40:41;;;;;;;5.63;2.67;;;;;;;18.59;55.48;101837.13;6107085;28;20231;-81
2023/06/01 15:44:02;;;;;;;9.88;2.80;;;;;;;18.10;55.63;101844.22;6112729;28;20263;-80